Miro D — 9HA3388 — position and weather

sailwx.info

Track history (hours):
 
Tides and Currents Weather Stations Pressure Air Temp Water Temp Dewpoint Dewpoint Depression Visibility Wind Speed Wind Dir Waves Ship Positions

Miro D

Last reported at 2018-Jun-05 01:27 UTC. Time now 2018-Jun-18 02:15 UTC.
Position N 23°19' W 087°25'.
Warning: this ship's position is 13 days out of date.

Length 138 m; draft 8.5 m.

Type: Ship (hazmat cat A). MMSI: 229535000.

Date/timePositionNaut miles runAvg speedWind from/ knotsBaromVisibWave heightAir tempDewpointWater temp
2018-Jun-05 01:27N 23°19' W 087°25'50812.9
2018-Jun-03 09:56N 29°07' W 094°18'512.0
2018-Jun-03 09:29N 29°09' W 094°24'712.0
2018-Jun-03 08:55N 29°12' W 094°31'612.2
2018-Jun-03 08:26N 29°16' W 094°36'4 9.4
2018-Jun-03 08:00N 29°19' W 094°39'612.1
2018-Jun-03 07:30N 29°20' W 094°46'610.9
2018-Jun-03 07:00N 29°23' W 094°52'2 4.7
2018-Jun-03 06:30N 29°22' W 094°54'1 1.6
2018-Jun-03 06:00N 29°22' W 094°55'0 0.0
2018-Jun-03 04:57N 29°22' W 094°55'0 0.0
2018-Jun-03 04:21N 29°22' W 094°55'0 0.0
2018-Jun-03 04:00N 29°22' W 094°55'0 0.0
2018-Jun-03 01:00N 29°22' W 094°55'0 0.0
2018-Jun-01 21:26N 29°22' W 094°55'1 0.8
2018-Jun-01 20:45N 29°22' W 094°54'1 3.4
2018-Jun-01 20:25N 29°22' W 094°53'3 6.9
2018-Jun-01 20:01N 29°22' W 094°50'1410.8
2018-Jun-01 18:42N 29°17' W 094°35'7 0.8
2018-Jun-01 09:59N 29°21' W 094°42'6 9.4
2018-Jun-01 09:24N 29°22' W 094°48'510.8
2018-Jun-01 08:57N 29°27' W 094°50'510.6
2018-Jun-01 08:30N 29°31' W 094°53'510.0
2018-Jun-01 08:00N 29°35' W 094°56'4 7.4
2018-Jun-01 07:30N 29°37' W 094°60'1 2.9
2018-Jun-01 07:00N 29°37' W 095°02'0 0.0
2018-Jun-01 06:27N 29°37' W 095°02'0 0.0
2018-Jun-01 05:57N 29°37' W 095°02'0 0.0
2018-Jun-01 05:30N 29°37' W 095°02'0 0.0
2018-Jun-01 05:00N 29°37' W 095°02'0 0.0
2018-Jun-01 04:30N 29°37' W 095°02'0 0.0
2018-Jun-01 04:00N 29°37' W 095°02'0 0.0
2018-Jun-01 03:30N 29°37' W 095°02'0 0.0
2018-Jun-01 03:00N 29°37' W 095°02'0 0.0
2018-Jun-01 02:30N 29°37' W 095°02'0 0.0
2018-Jun-01 02:00N 29°37' W 095°02'0 0.0
2018-Jun-01 01:30N 29°37' W 095°02'0 0.0
2018-Jun-01 01:00N 29°37' W 095°02'0 0.0
2018-Jun-01 00:30N 29°37' W 095°02'0 0.0
2018-Jun-01 00:00N 29°37' W 095°02'0 0.0
2018-May-31 23:30N 29°37' W 095°02'0 0.0
2018-May-31 23:00N 29°37' W 095°02'0 0.0
2018-May-31 22:30N 29°37' W 095°02'0 0.0
2018-May-31 22:00N 29°37' W 095°02'0 0.0
2018-May-31 21:30N 29°37' W 095°02'0 0.0
2018-May-31 21:00N 29°37' W 095°02'0 0.0
2018-May-31 20:30N 29°37' W 095°02'0 0.0
2018-May-31 20:00N 29°37' W 095°02'0 0.0
2018-May-31 19:30N 29°37' W 095°02'0 0.0
2018-May-31 19:00N 29°37' W 095°02'0 0.0
2018-May-31 18:30N 29°37' W 095°02'0 0.0
2018-May-31 17:57N 29°37' W 095°02'0 0.0
2018-May-31 17:30N 29°37' W 095°02'0 0.0
2018-May-31 17:00N 29°37' W 095°02'0 0.0
2018-May-31 16:30N 29°37' W 095°02'0 0.5
2018-May-31 16:00N 29°37' W 095°01'2 4.1
2018-May-31 15:30N 29°37' W 094°59'4 8.5
2018-May-31 15:00N 29°34' W 094°55'611.3
2018-May-31 14:30N 29°29' W 094°52'612.0
2018-May-31 14:00N 29°24' W 094°49'612.0
2018-May-31 13:30N 29°21' W 094°43'612.3
2018-May-31 13:00N 29°18' W 094°36'510.7
2018-May-31 12:29N 29°15' W 094°31'  
Track history (hours):
 
Tides and Currents Weather Stations Pressure Air Temp Water Temp Dewpoint Dewpoint Depression Visibility Wind Speed Wind Dir Waves Ship Positions

Miro D

Last reported at 2018-Jun-05 01:27 UTC. Time now 2018-Jun-18 02:15 UTC.
Position N 23°19' W 087°25'.
Warning: this ship's position is 13 days out of date.

Length 138 m; draft 8.5 m.

Type: Ship (hazmat cat A). MMSI: 229535000.

Date/timePositionNaut miles runAvg speedWind from/ knotsBaromVisibWave heightAir tempDewpointWater temp
2018-Jun-05 01:27N 23°19' W 087°25'50812.9
2018-Jun-03 09:56N 29°07' W 094°18'512.0
2018-Jun-03 09:29N 29°09' W 094°24'712.0
2018-Jun-03 08:55N 29°12' W 094°31'612.2
2018-Jun-03 08:26N 29°16' W 094°36'4 9.4
2018-Jun-03 08:00N 29°19' W 094°39'612.1
2018-Jun-03 07:30N 29°20' W 094°46'610.9
2018-Jun-03 07:00N 29°23' W 094°52'2 4.7
2018-Jun-03 06:30N 29°22' W 094°54'1 1.6
2018-Jun-03 06:00N 29°22' W 094°55'0 0.0
2018-Jun-03 04:57N 29°22' W 094°55'0 0.0
2018-Jun-03 04:21N 29°22' W 094°55'0 0.0
2018-Jun-03 04:00N 29°22' W 094°55'0 0.0
2018-Jun-03 01:00N 29°22' W 094°55'0 0.0
2018-Jun-01 21:26N 29°22' W 094°55'1 0.8
2018-Jun-01 20:45N 29°22' W 094°54'1 3.4
2018-Jun-01 20:25N 29°22' W 094°53'3 6.9
2018-Jun-01 20:01N 29°22' W 094°50'1410.8
2018-Jun-01 18:42N 29°17' W 094°35'7 0.8
2018-Jun-01 09:59N 29°21' W 094°42'6 9.4
2018-Jun-01 09:24N 29°22' W 094°48'510.8
2018-Jun-01 08:57N 29°27' W 094°50'510.6
2018-Jun-01 08:30N 29°31' W 094°53'510.0
2018-Jun-01 08:00N 29°35' W 094°56'4 7.4
2018-Jun-01 07:30N 29°37' W 094°60'1 2.9
2018-Jun-01 07:00N 29°37' W 095°02'0 0.0
2018-Jun-01 06:27N 29°37' W 095°02'0 0.0
2018-Jun-01 05:57N 29°37' W 095°02'0 0.0
2018-Jun-01 05:30N 29°37' W 095°02'0 0.0
2018-Jun-01 05:00N 29°37' W 095°02'0 0.0
2018-Jun-01 04:30N 29°37' W 095°02'0 0.0
2018-Jun-01 04:00N 29°37' W 095°02'0 0.0
2018-Jun-01 03:30N 29°37' W 095°02'0 0.0
2018-Jun-01 03:00N 29°37' W 095°02'0 0.0
2018-Jun-01 02:30N 29°37' W 095°02'0 0.0
2018-Jun-01 02:00N 29°37' W 095°02'0 0.0
2018-Jun-01 01:30N 29°37' W 095°02'0 0.0
2018-Jun-01 01:00N 29°37' W 095°02'0 0.0
2018-Jun-01 00:30N 29°37' W 095°02'0 0.0
2018-Jun-01 00:00N 29°37' W 095°02'0 0.0
2018-May-31 23:30N 29°37' W 095°02'0 0.0
2018-May-31 23:00N 29°37' W 095°02'0 0.0
2018-May-31 22:30N 29°37' W 095°02'0 0.0
2018-May-31 22:00N 29°37' W 095°02'0 0.0
2018-May-31 21:30N 29°37' W 095°02'0 0.0
2018-May-31 21:00N 29°37' W 095°02'0 0.0
2018-May-31 20:30N 29°37' W 095°02'0 0.0
2018-May-31 20:00N 29°37' W 095°02'0 0.0
2018-May-31 19:30N 29°37' W 095°02'0 0.0
2018-May-31 19:00N 29°37' W 095°02'0 0.0
2018-May-31 18:30N 29°37' W 095°02'0 0.0
2018-May-31 17:57N 29°37' W 095°02'0 0.0
2018-May-31 17:30N 29°37' W 095°02'0 0.0
2018-May-31 17:00N 29°37' W 095°02'0 0.0
2018-May-31 16:30N 29°37' W 095°02'0 0.5
2018-May-31 16:00N 29°37' W 095°01'2 4.1
2018-May-31 15:30N 29°37' W 094°59'4 8.5
2018-May-31 15:00N 29°34' W 094°55'611.3
2018-May-31 14:30N 29°29' W 094°52'612.0
2018-May-31 14:00N 29°24' W 094°49'612.0
2018-May-31 13:30N 29°21' W 094°43'612.3
2018-May-31 13:00N 29°18' W 094°36'510.7
2018-May-31 12:29N 29°15' W 094°31'  

Dump ship's entire track history